createdAt,value
2018-08-12T00:00:51.065Z,13.86
2018-08-12T00:01:50.984Z,13.74
2018-08-12T00:02:50.909Z,13.70
2018-08-12T00:03:50.833Z,13.62
2018-08-12T00:04:50.758Z,13.61
2018-08-12T00:05:50.681Z,13.61
2018-08-12T00:06:50.605Z,13.55
2018-08-12T00:07:50.529Z,13.56
2018-08-12T00:08:50.453Z,13.53
2018-08-12T00:09:50.378Z,13.52
2018-08-12T00:10:50.301Z,13.52
2018-08-12T00:11:50.227Z,13.48
2018-08-12T00:12:50.151Z,13.58
2018-08-12T00:13:50.072Z,13.47
2018-08-12T00:14:49.996Z,13.48
2018-08-12T00:15:49.920Z,13.47
2018-08-12T00:16:49.844Z,13.47
2018-08-12T00:17:49.767Z,13.48
2018-08-12T00:18:49.693Z,13.44
2018-08-12T00:19:49.615Z,13.38
2018-08-12T00:20:49.539Z,13.33
2018-08-12T00:21:49.464Z,13.28
2018-08-12T00:22:49.388Z,13.25
2018-08-12T00:23:49.311Z,13.27
2018-08-12T00:24:49.237Z,13.24
2018-08-12T00:25:49.159Z,13.29
2018-08-12T00:26:49.081Z,13.24
2018-08-12T00:27:49.005Z,13.18
2018-08-12T00:28:48.930Z,13.18
2018-08-12T00:29:48.895Z,13.18
2018-08-12T00:30:48.777Z,13.14
2018-08-12T00:31:48.702Z,13.21
2018-08-12T00:32:48.625Z,13.11
2018-08-12T00:33:48.549Z,13.11
2018-08-12T00:34:48.472Z,13.15
2018-08-12T00:35:48.396Z,13.22
2018-08-12T00:36:48.319Z,13.19
2018-08-12T00:37:48.244Z,13.27
2018-08-12T00:38:48.176Z,13.15
2018-08-12T00:39:48.091Z,13.15
2018-08-12T00:40:48.015Z,13.18
2018-08-12T00:41:47.939Z,13.15
2018-08-12T00:42:47.863Z,13.07
2018-08-12T00:43:47.786Z,13.11
2018-08-12T00:44:47.760Z,13.07
2018-08-12T00:45:47.636Z,13.07
2018-08-12T00:46:47.557Z,13.04
2018-08-12T00:47:47.486Z,13.03
2018-08-12T00:48:47.404Z,13.02
2018-08-12T00:49:47.328Z,13.10
2018-08-12T00:50:47.253Z,13.09
2018-08-12T00:51:47.174Z,13.06
2018-08-12T00:52:47.106Z,13.09
2018-08-12T00:53:47.023Z,13.02
2018-08-12T00:54:46.947Z,13.07
2018-08-12T00:55:46.869Z,13.04
2018-08-12T00:56:46.793Z,12.86
2018-08-12T00:57:46.717Z,12.96
2018-08-12T00:58:46.639Z,12.85
2018-08-12T00:59:46.564Z,12.85
2018-08-12T01:00:46.487Z,12.79
2018-08-12T01:01:46.410Z,12.92
2018-08-12T01:02:46.334Z,12.91
2018-08-12T01:03:46.257Z,12.89
2018-08-12T01:04:46.181Z,12.85
2018-08-12T01:05:46.105Z,12.91
2018-08-12T01:06:46.030Z,12.79
2018-08-12T01:07:45.951Z,12.84
2018-08-12T01:08:45.874Z,12.79
2018-08-12T01:09:45.799Z,12.84
2018-08-12T01:10:45.721Z,12.88
2018-08-12T01:11:45.644Z,12.86
2018-08-12T01:12:45.568Z,12.81
2018-08-12T01:13:45.491Z,12.78
2018-08-12T01:14:45.415Z,12.78
2018-08-12T01:15:45.339Z,12.74
2018-08-12T01:16:45.262Z,12.70
2018-08-12T01:17:45.186Z,12.71
2018-08-12T01:18:45.109Z,12.81
2018-08-12T01:19:45.032Z,12.71
2018-08-12T01:20:44.955Z,12.73
2018-08-12T01:21:44.881Z,12.78
2018-08-12T01:22:44.804Z,12.71
2018-08-12T01:23:44.725Z,12.73
2018-08-12T01:24:44.647Z,12.79
2018-08-12T01:25:44.571Z,12.70
2018-08-12T01:26:44.495Z,12.61
2018-08-12T01:27:44.417Z,12.79
2018-08-12T01:28:44.340Z,12.69
2018-08-12T01:29:44.264Z,12.67
2018-08-12T01:30:44.188Z,12.71
2018-08-12T01:31:44.111Z,12.69
2018-08-12T01:32:44.035Z,12.69
2018-08-12T01:33:43.959Z,12.67
2018-08-12T01:34:43.882Z,12.71
2018-08-12T01:35:43.808Z,12.74
2018-08-12T01:36:43.727Z,12.73
2018-08-12T01:37:43.650Z,12.61
2018-08-12T01:38:43.575Z,12.74
2018-08-12T01:39:43.496Z,12.63
2018-08-12T01:40:43.419Z,12.69
2018-08-12T01:41:43.344Z,12.61
2018-08-12T01:42:43.266Z,12.88
2018-08-12T01:43:43.189Z,12.77
2018-08-12T01:44:43.113Z,12.71
2018-08-12T01:45:43.036Z,12.71
2018-08-12T01:46:42.965Z,12.71
2018-08-12T01:47:42.885Z,12.69
2018-08-12T01:48:42.806Z,12.78
2018-08-12T01:49:42.730Z,12.66
2018-08-12T01:50:42.653Z,12.55
2018-08-12T01:51:42.576Z,12.60
2018-08-12T01:52:42.498Z,12.52
2018-08-12T01:53:42.423Z,12.55
2018-08-12T01:54:42.346Z,12.49
2018-08-12T01:55:42.268Z,12.60
2018-08-12T01:56:42.192Z,12.51
2018-08-12T01:57:42.117Z,12.42
2018-08-12T01:58:42.038Z,12.42
2018-08-12T01:59:41.962Z,12.30
2018-08-12T02:00:41.884Z,12.24
2018-08-12T02:01:41.808Z,12.23
2018-08-12T02:02:41.731Z,12.16
2018-08-12T02:03:41.653Z,12.19
2018-08-12T02:04:41.577Z,12.13
2018-08-12T02:05:41.501Z,12.16
2018-08-12T02:06:41.424Z,12.03
2018-08-12T02:07:41.347Z,11.95
2018-08-12T02:08:41.269Z,12.05
2018-08-12T02:09:41.193Z,11.98
2018-08-12T02:10:41.115Z,12.03
2018-08-12T02:11:41.038Z,11.95
2018-08-12T02:12:40.960Z,11.98
2018-08-12T02:13:40.883Z,12.05
2018-08-12T02:14:40.806Z,12.02
2018-08-12T02:15:40.731Z,11.98
2018-08-12T02:16:40.701Z,12.03
2018-08-12T02:17:40.575Z,11.94
2018-08-12T02:18:40.499Z,12.02
2018-08-12T02:19:40.420Z,11.98
2018-08-12T02:20:40.343Z,11.95
2018-08-12T02:21:40.266Z,11.98
2018-08-12T02:22:40.189Z,11.94
2018-08-12T02:23:40.112Z,12.00
2018-08-12T02:24:40.035Z,11.86
2018-08-12T02:25:39.960Z,11.94
2018-08-12T02:26:39.880Z,12.02
2018-08-12T02:27:39.803Z,12.03
2018-08-12T02:28:39.724Z,12.06
2018-08-12T02:29:39.648Z,12.03
2018-08-12T02:30:39.573Z,12.02
2018-08-12T02:31:39.494Z,12.02
2018-08-12T02:32:39.416Z,12.06
2018-08-12T02:33:39.339Z,12.05
2018-08-12T02:34:39.269Z,12.12
2018-08-12T02:35:39.184Z,12.11
2018-08-12T02:36:39.111Z,12.11
2018-08-12T02:37:39.031Z,12.11
2018-08-12T02:38:38.953Z,12.18
2018-08-12T02:39:38.875Z,12.18
2018-08-12T02:40:38.798Z,12.12
2018-08-12T02:41:38.722Z,12.18
2018-08-12T02:42:38.644Z,12.12
2018-08-12T02:43:38.572Z,12.16
2018-08-12T02:44:38.491Z,12.11
2018-08-12T02:45:38.412Z,12.15
2018-08-12T02:46:38.375Z,12.24
2018-08-12T02:47:38.258Z,12.15
2018-08-12T02:48:38.180Z,12.05
2018-08-12T02:49:38.103Z,12.02
2018-08-12T02:50:38.026Z,11.97
2018-08-12T02:51:37.953Z,12.13
2018-08-12T02:52:37.871Z,12.05
2018-08-12T02:53:37.794Z,11.95
2018-08-12T02:54:37.717Z,11.97
2018-08-12T02:55:37.640Z,11.90
2018-08-12T02:56:37.581Z,11.90
2018-08-12T02:57:37.486Z,11.81
2018-08-12T02:58:37.407Z,11.81
2018-08-12T02:59:37.329Z,11.90
2018-08-12T03:00:37.256Z,11.79
2018-08-12T03:01:37.176Z,11.74
2018-08-12T03:02:37.098Z,11.68
2018-08-12T03:03:37.021Z,11.61
2018-08-12T03:04:36.943Z,11.61
2018-08-12T03:05:36.867Z,11.67
2018-08-12T03:06:36.789Z,11.65
2018-08-12T03:07:36.711Z,11.69
2018-08-12T03:08:36.633Z,11.59
2018-08-12T03:09:36.559Z,11.54
2018-08-12T03:10:36.479Z,11.50
2018-08-12T03:11:36.401Z,11.56
2018-08-12T03:12:36.323Z,11.51
2018-08-12T03:13:36.246Z,11.50
2018-08-12T03:14:36.169Z,11.54
2018-08-12T03:15:36.091Z,11.51
2018-08-12T03:16:36.014Z,11.57
2018-08-12T03:17:35.938Z,11.59
2018-08-12T03:18:35.858Z,11.53
2018-08-12T03:19:35.779Z,11.53
2018-08-12T03:20:35.704Z,11.53
2018-08-12T03:21:35.626Z,11.69
2018-08-12T03:22:35.607Z,11.71
2018-08-12T03:23:35.473Z,11.75
2018-08-12T03:24:35.391Z,11.60
2018-08-12T03:25:35.318Z,11.74
2018-08-12T03:26:35.237Z,11.75
2018-08-12T03:27:35.162Z,11.86
2018-08-12T03:28:35.082Z,11.79
2018-08-12T03:29:35.005Z,11.97
2018-08-12T03:30:34.928Z,11.95
2018-08-12T03:31:34.850Z,11.89
2018-08-12T03:32:34.773Z,11.79
2018-08-12T03:33:34.845Z,11.83
2018-08-12T03:34:34.618Z,11.86
2018-08-12T03:35:34.539Z,11.89
2018-08-12T03:36:34.460Z,11.76
2018-08-12T03:37:34.386Z,11.68
2018-08-12T03:38:34.307Z,11.72
2018-08-12T03:39:34.229Z,11.72
2018-08-12T03:40:34.152Z,11.61
2018-08-12T03:41:34.076Z,11.61
2018-08-12T03:42:33.999Z,11.60
2018-08-12T03:43:33.919Z,11.60
2018-08-12T03:44:33.843Z,11.65
2018-08-12T03:45:33.766Z,11.61
2018-08-12T03:46:33.687Z,11.59
2018-08-12T03:47:33.608Z,11.50
2018-08-12T03:48:33.531Z,11.32
2018-08-12T03:49:33.458Z,11.34
2018-08-12T03:50:33.377Z,11.35
2018-08-12T03:51:33.298Z,11.34
2018-08-12T03:52:33.221Z,11.29
2018-08-12T03:53:33.145Z,11.35
2018-08-12T03:54:33.068Z,11.28
2018-08-12T03:55:32.988Z,11.28
2018-08-12T03:56:32.910Z,11.41
2018-08-12T03:57:32.833Z,11.50
2018-08-12T03:58:32.755Z,11.46
2018-08-12T03:59:33.177Z,11.36
2018-08-12T04:00:32.601Z,11.32
2018-08-12T04:01:32.525Z,11.31
2018-08-12T04:02:32.447Z,11.21
2018-08-12T04:03:32.371Z,11.21
2018-08-12T04:04:32.291Z,11.16
2018-08-12T04:05:32.213Z,11.17
2018-08-12T04:06:32.138Z,11.20
2018-08-12T04:07:32.056Z,11.17
2018-08-12T04:08:31.979Z,11.26
2018-08-12T04:09:31.901Z,11.34
2018-08-12T04:10:31.824Z,11.43
2018-08-12T04:11:31.748Z,11.49
2018-08-12T04:12:31.669Z,11.57
2018-08-12T04:13:31.593Z,11.51
2018-08-12T04:14:31.513Z,11.41
2018-08-12T04:15:31.434Z,11.32
2018-08-12T04:16:31.358Z,11.28
2018-08-12T04:17:31.284Z,11.35
2018-08-12T04:18:31.203Z,11.20
2018-08-12T04:19:31.123Z,11.18
2018-08-12T04:20:31.048Z,11.10
2018-08-12T04:21:30.967Z,11.02
2018-08-12T04:22:30.897Z,11.05
2018-08-12T04:23:30.818Z,11.00
2018-08-12T04:24:30.736Z,10.95
2018-08-12T04:25:30.707Z,11.00
2018-08-12T04:26:30.581Z,10.96
2018-08-12T04:27:30.501Z,11.06
2018-08-12T04:28:30.426Z,10.98
2018-08-12T04:29:30.347Z,10.98
2018-08-12T04:30:30.268Z,11.06
2018-08-12T04:31:30.191Z,11.05
2018-08-12T04:32:30.113Z,10.99
2018-08-12T04:33:30.037Z,10.99
2018-08-12T04:34:29.957Z,11.08
2018-08-12T04:35:29.878Z,11.06
2018-08-12T04:36:29.802Z,11.17
2018-08-12T04:37:29.722Z,11.17
2018-08-12T04:38:29.646Z,11.23
2018-08-12T04:39:29.566Z,11.34
2018-08-12T04:40:29.488Z,11.31
2018-08-12T04:41:29.411Z,11.35
2018-08-12T04:42:29.335Z,11.38
2018-08-12T04:43:29.255Z,11.36
2018-08-12T04:44:29.177Z,11.46
2018-08-12T04:45:29.100Z,11.36
2018-08-12T04:46:29.023Z,11.36
2018-08-12T04:47:28.946Z,11.38
2018-08-12T04:48:28.870Z,11.38
2018-08-12T04:49:28.788Z,11.36
2018-08-12T04:50:28.711Z,11.31
2018-08-12T04:51:28.635Z,11.34
2018-08-12T04:52:28.554Z,11.36
2018-08-12T04:53:28.478Z,11.43
2018-08-12T04:54:28.399Z,11.51
2018-08-12T04:55:28.322Z,11.53
2018-08-12T04:56:28.243Z,11.57
2018-08-12T04:57:28.165Z,11.61
2018-08-12T04:58:28.089Z,11.64
2018-08-12T04:59:28.010Z,11.64
2018-08-12T05:00:27.935Z,11.67
2018-08-12T05:01:27.854Z,11.61
2018-08-12T05:02:27.777Z,11.68
2018-08-12T05:03:27.700Z,11.68
2018-08-12T05:04:27.621Z,11.68
2018-08-12T05:05:27.544Z,11.78
2018-08-12T05:06:27.467Z,11.83
2018-08-12T05:07:27.392Z,11.78
2018-08-12T05:08:27.310Z,11.72
2018-08-12T05:09:27.235Z,11.83
2018-08-12T05:10:27.156Z,11.76
2018-08-12T05:11:27.077Z,11.76
2018-08-12T05:12:27.000Z,11.79
2018-08-12T05:13:26.924Z,11.76
2018-08-12T05:14:26.845Z,11.76
2018-08-12T05:15:26.768Z,11.75
2018-08-12T05:16:26.693Z,11.89
2018-08-12T05:17:26.612Z,11.89
2018-08-12T05:18:26.535Z,11.94
2018-08-12T05:19:26.457Z,11.98
2018-08-12T05:20:26.380Z,12.03
2018-08-12T05:21:26.307Z,12.02
2018-08-12T05:22:26.225Z,12.12
2018-08-12T05:23:26.158Z,12.05
2018-08-12T05:24:26.070Z,12.16
2018-08-12T05:25:25.993Z,12.21
2018-08-12T05:26:25.915Z,12.27
2018-08-12T05:27:25.837Z,12.31
2018-08-12T05:28:25.763Z,12.31
2018-08-12T05:29:25.684Z,12.41
2018-08-12T05:30:25.606Z,12.42
2018-08-12T05:31:25.529Z,12.42
2018-08-12T05:32:25.451Z,12.53
2018-08-12T05:33:25.375Z,12.44
2018-08-12T05:34:25.299Z,12.49
2018-08-12T05:35:25.220Z,12.48
2018-08-12T05:36:25.143Z,12.60
2018-08-12T05:37:25.069Z,12.67
2018-08-12T05:38:24.990Z,12.63
2018-08-12T05:39:24.913Z,12.61
2018-08-12T05:40:24.835Z,12.67
2018-08-12T05:41:24.758Z,12.67
2018-08-12T05:42:24.682Z,12.64
2018-08-12T05:43:24.605Z,12.74
2018-08-12T05:44:24.528Z,12.85
2018-08-12T05:45:24.451Z,12.92
2018-08-12T05:46:24.375Z,13.03
2018-08-12T05:47:24.298Z,13.02
2018-08-12T05:48:24.227Z,13.04
2018-08-12T05:49:24.144Z,13.11
2018-08-12T05:50:24.069Z,13.17
2018-08-12T05:51:24.009Z,13.25
2018-08-12T05:52:23.916Z,13.25
2018-08-12T05:53:23.839Z,13.37
2018-08-12T05:54:23.764Z,13.40
2018-08-12T05:55:23.687Z,13.44
2018-08-12T05:56:23.609Z,13.53
2018-08-12T05:57:23.535Z,13.66
2018-08-12T05:58:23.458Z,13.68
2018-08-12T05:59:23.380Z,13.66
2018-08-12T06:00:23.306Z,13.70
2018-08-12T06:01:23.229Z,13.74
2018-08-12T06:02:23.157Z,13.84
2018-08-12T06:03:23.077Z,13.95
2018-08-12T06:04:23.001Z,14.01
2018-08-12T06:05:22.925Z,14.02
2018-08-12T06:06:22.850Z,14.09
2018-08-12T06:07:22.774Z,14.16
2018-08-12T06:08:22.700Z,14.19
2018-08-12T06:09:22.622Z,14.29
2018-08-12T06:10:22.548Z,14.36
2018-08-12T06:11:22.470Z,14.44
2018-08-12T06:12:22.395Z,14.46
2018-08-12T06:13:22.319Z,14.54
2018-08-12T06:14:22.244Z,14.57
2018-08-12T06:15:22.173Z,14.64
2018-08-12T06:16:22.093Z,14.60
2018-08-12T06:17:22.096Z,14.60
2018-08-12T06:18:21.944Z,14.60
2018-08-12T06:19:21.867Z,14.52
2018-08-12T06:20:21.792Z,14.47
2018-08-12T06:21:21.718Z,14.49
2018-08-12T06:22:21.644Z,14.60
2018-08-12T06:23:21.567Z,14.67
2018-08-12T06:24:21.492Z,14.75
2018-08-12T06:25:21.417Z,14.84
2018-08-12T06:26:21.342Z,14.94
2018-08-12T06:27:21.266Z,15.05
2018-08-12T06:28:21.192Z,15.20
2018-08-12T06:29:21.140Z,15.30
2018-08-12T06:30:21.043Z,15.39
2018-08-12T06:31:20.966Z,15.41
2018-08-12T06:32:20.909Z,15.46
2018-08-12T06:33:20.819Z,15.66
2018-08-12T06:34:20.803Z,15.71
2018-08-12T06:35:20.670Z,15.82
2018-08-12T06:36:20.595Z,15.96
2018-08-12T06:37:20.519Z,16.01
2018-08-12T06:38:20.447Z,16.33
2018-08-12T06:39:20.371Z,16.48
2018-08-12T06:40:20.298Z,16.60
2018-08-12T06:41:20.224Z,16.62
2018-08-12T06:42:20.148Z,16.60
2018-08-12T06:43:20.075Z,16.60
2018-08-12T06:44:20.000Z,16.65
2018-08-12T06:45:19.926Z,16.62
2018-08-12T06:46:19.907Z,16.67
2018-08-12T06:47:19.778Z,16.70
2018-08-12T06:48:19.707Z,16.75
2018-08-12T06:49:19.630Z,16.84
2018-08-12T06:50:19.556Z,16.89
2018-08-12T06:51:19.482Z,17.00
2018-08-12T06:52:19.408Z,17.05
2018-08-12T06:53:19.335Z,17.11
2018-08-12T06:54:19.260Z,17.23
2018-08-12T06:55:19.185Z,17.18
2018-08-12T06:56:19.113Z,17.29
2018-08-12T06:57:19.042Z,17.40
2018-08-12T06:58:18.965Z,17.39
2018-08-12T06:59:18.890Z,17.55
2018-08-12T07:00:18.879Z,17.55
2018-08-12T07:01:18.756Z,17.71
2018-08-12T07:02:18.669Z,17.77
2018-08-12T07:03:18.597Z,17.84
2018-08-12T07:04:18.523Z,17.88
2018-08-12T07:05:18.449Z,17.92
2018-08-12T07:06:18.376Z,17.94
2018-08-12T07:07:18.302Z,18.09
2018-08-12T07:08:18.229Z,18.04
2018-08-12T07:09:18.156Z,18.18
2018-08-12T07:10:18.083Z,18.22
2018-08-12T07:11:18.011Z,18.31
2018-08-12T07:12:17.938Z,18.40
2018-08-12T07:13:17.865Z,18.47
2018-08-12T07:14:17.848Z,18.53
2018-08-12T07:15:17.718Z,18.62
2018-08-12T07:16:17.645Z,18.61
2018-08-12T07:17:17.573Z,18.80
2018-08-12T07:18:17.501Z,18.86
2018-08-12T07:19:17.427Z,18.97
2018-08-12T07:20:17.354Z,19.05
2018-08-12T07:21:17.282Z,19.09
2018-08-12T07:22:17.209Z,19.17
2018-08-12T07:23:17.138Z,19.23
2018-08-12T07:24:17.064Z,19.18
2018-08-12T07:25:16.991Z,19.32
2018-08-12T07:26:16.920Z,19.32
2018-08-12T07:27:16.845Z,19.32
2018-08-12T07:28:16.773Z,19.40
2018-08-12T07:29:16.703Z,19.39
2018-08-12T07:30:16.629Z,19.45
2018-08-12T07:31:16.556Z,19.45
2018-08-12T07:32:16.484Z,19.45
2018-08-12T07:33:16.411Z,19.53
2018-08-12T07:34:16.341Z,19.55
2018-08-12T07:35:16.273Z,19.65
2018-08-12T07:36:16.196Z,19.69
2018-08-12T07:37:16.122Z,19.73
2018-08-12T07:38:16.053Z,19.91
2018-08-12T07:39:15.978Z,19.94
2018-08-12T07:40:15.907Z,19.90
2018-08-12T07:41:15.835Z,20.01
2018-08-12T07:42:15.762Z,20.12
2018-08-12T07:43:15.693Z,20.10
2018-08-12T07:44:15.618Z,20.20
2018-08-12T07:45:15.545Z,20.19
2018-08-12T07:46:15.474Z,20.23
2018-08-12T07:47:15.404Z,20.47
2018-08-12T07:48:15.330Z,20.53
2018-08-12T07:49:15.259Z,20.59
2018-08-12T07:50:15.186Z,20.62
2018-08-12T07:51:15.115Z,20.72
2018-08-12T07:52:15.042Z,20.69
2018-08-12T07:53:14.970Z,20.74
2018-08-12T07:54:14.900Z,20.75
2018-08-12T07:55:14.826Z,20.72
2018-08-12T07:56:14.758Z,20.80
2018-08-12T07:57:14.683Z,20.84
2018-08-12T07:58:14.614Z,21.02
2018-08-12T07:59:14.540Z,20.98
2018-08-12T08:00:14.472Z,20.98
2018-08-12T08:01:14.399Z,20.96
2018-08-12T08:02:14.325Z,21.06
2018-08-12T08:03:14.253Z,21.09
2018-08-12T08:04:14.182Z,21.11
2018-08-12T08:05:14.110Z,21.17
2018-08-12T08:06:14.080Z,21.21
2018-08-12T08:07:13.968Z,21.29
2018-08-12T08:08:13.895Z,21.41
2018-08-12T08:09:13.825Z,21.48
2018-08-12T08:10:13.753Z,21.57
2018-08-12T08:11:13.682Z,21.61
2018-08-12T08:12:13.610Z,21.70
2018-08-12T08:13:13.540Z,21.75
2018-08-12T08:14:13.471Z,21.76
2018-08-12T08:15:13.396Z,21.89
2018-08-12T08:16:13.325Z,21.92
2018-08-12T08:17:13.253Z,21.97
2018-08-12T08:18:13.182Z,21.95
2018-08-12T08:19:13.111Z,21.98
2018-08-12T08:20:13.040Z,22.05
2018-08-12T08:21:12.968Z,22.04
2018-08-12T08:22:12.898Z,22.08
2018-08-12T08:23:12.827Z,22.12
2018-08-12T08:24:12.756Z,22.12
2018-08-12T08:25:12.686Z,22.13
2018-08-12T08:26:12.614Z,22.13
2018-08-12T08:27:12.546Z,22.02
2018-08-12T08:28:12.473Z,22.13
2018-08-12T08:29:12.400Z,22.07
2018-08-12T08:30:12.328Z,22.35
2018-08-12T08:31:12.259Z,22.37
2018-08-12T08:32:12.259Z,22.53
2018-08-12T08:33:12.117Z,22.68
2018-08-12T08:34:12.048Z,22.65
2018-08-12T08:35:11.975Z,22.54
2018-08-12T08:36:11.909Z,22.52
2018-08-12T08:37:11.834Z,22.46
2018-08-12T08:38:11.847Z,22.62
2018-08-12T08:39:11.689Z,22.50
2018-08-12T08:40:11.620Z,22.52
2018-08-12T08:41:11.549Z,22.47
2018-08-12T08:42:11.478Z,22.57
2018-08-12T08:43:11.406Z,22.63
2018-08-12T08:44:11.338Z,22.59
2018-08-12T08:45:11.266Z,22.75
2018-08-12T08:46:11.202Z,22.78
2018-08-12T08:47:11.123Z,22.92
2018-08-12T08:48:11.053Z,22.93
2018-08-12T08:49:10.982Z,22.92
2018-08-12T08:50:10.913Z,22.93
2018-08-12T08:51:10.839Z,22.90
2018-08-12T08:52:10.769Z,22.89
2018-08-12T08:53:10.716Z,22.90
2018-08-12T08:54:10.629Z,22.92
2018-08-12T08:55:10.557Z,22.96
2018-08-12T08:56:10.533Z,23.00
2018-08-12T08:57:10.417Z,23.09
2018-08-12T08:58:10.346Z,23.15
2018-08-12T08:59:10.276Z,23.14
2018-08-12T09:00:10.206Z,23.04
2018-08-12T09:01:10.169Z,22.94
2018-08-12T09:02:10.064Z,22.94
2018-08-12T09:03:09.993Z,23.02
2018-08-12T09:04:09.926Z,23.11
2018-08-12T09:05:09.853Z,23.07
2018-08-12T09:06:09.781Z,23.09
2018-08-12T09:07:09.710Z,23.09
2018-08-12T09:08:09.854Z,23.12
2018-08-12T09:09:09.973Z,23.11
2018-08-12T09:10:09.500Z,23.14
2018-08-12T09:11:09.428Z,23.17
2018-08-12T09:12:09.358Z,23.23
2018-08-12T09:13:09.287Z,23.20
2018-08-12T09:14:09.218Z,23.45
2018-08-12T09:15:09.147Z,23.37
2018-08-12T09:16:09.076Z,23.27
2018-08-12T09:17:09.006Z,23.29
2018-08-12T09:18:09.010Z,23.20
2018-08-12T09:19:08.865Z,23.26
2018-08-12T09:20:08.795Z,23.23
2018-08-12T09:21:08.724Z,23.42
2018-08-12T09:22:08.656Z,23.56
2018-08-12T09:23:08.584Z,23.61
2018-08-12T09:24:08.516Z,23.72
2018-08-12T09:25:08.442Z,23.80
2018-08-12T09:26:08.374Z,23.79
2018-08-12T09:27:08.302Z,23.82
2018-08-12T09:28:08.233Z,23.92
2018-08-12T09:29:08.161Z,23.86
2018-08-12T09:30:08.091Z,23.93
2018-08-12T09:31:08.023Z,24.08
2018-08-12T09:32:07.951Z,24.11
2018-08-12T09:33:07.883Z,24.26
2018-08-12T09:34:07.812Z,24.29
2018-08-12T09:35:07.740Z,24.45
2018-08-12T09:36:07.671Z,24.32
2018-08-12T09:37:07.601Z,24.15
2018-08-12T09:38:07.532Z,24.08
2018-08-12T09:39:07.460Z,24.02
2018-08-12T09:40:07.392Z,24.01
2018-08-12T09:41:07.321Z,23.89
2018-08-12T09:42:07.252Z,23.92
2018-08-12T09:43:07.271Z,24.04
2018-08-12T09:44:07.110Z,24.07
2018-08-12T09:45:07.039Z,24.04
2018-08-12T09:46:06.969Z,24.19
2018-08-12T09:47:06.899Z,24.37
2018-08-12T09:48:06.829Z,24.45
2018-08-12T09:49:06.758Z,24.50
2018-08-12T09:50:06.690Z,24.54
2018-08-12T09:51:06.618Z,24.45
2018-08-12T09:52:06.549Z,24.34
2018-08-12T09:53:06.480Z,24.41
2018-08-12T09:54:06.411Z,24.47
2018-08-12T09:55:06.338Z,24.53
2018-08-12T09:56:06.269Z,24.47
2018-08-12T09:57:06.199Z,24.48
2018-08-12T09:58:06.128Z,24.38
2018-08-12T09:59:06.059Z,24.38
2018-08-12T10:00:05.989Z,24.54
2018-08-12T10:01:05.920Z,24.76
2018-08-12T10:02:05.851Z,24.88
2018-08-12T10:03:05.779Z,24.78
2018-08-12T10:04:05.713Z,24.86
2018-08-12T10:05:05.641Z,24.90
2018-08-12T10:06:05.571Z,24.93
2018-08-12T10:07:05.504Z,24.85
2018-08-12T10:08:05.431Z,25.02
2018-08-12T10:09:05.365Z,25.09
2018-08-12T10:10:05.292Z,25.17
2018-08-12T10:11:05.222Z,25.19
2018-08-12T10:12:05.151Z,25.22
2018-08-12T10:13:05.083Z,25.31
2018-08-12T10:14:05.013Z,25.27
2018-08-12T10:15:04.943Z,25.27
2018-08-12T10:16:04.872Z,25.31
2018-08-12T10:17:04.804Z,25.35
2018-08-12T10:18:04.734Z,25.42
2018-08-12T10:19:04.665Z,25.41
2018-08-12T10:20:04.595Z,25.40
2018-08-12T10:21:04.527Z,25.47
2018-08-12T10:22:04.457Z,25.55
2018-08-12T10:23:04.386Z,25.75
2018-08-12T10:24:04.316Z,25.96
2018-08-12T10:25:04.248Z,26.12
2018-08-12T10:26:04.179Z,25.94
2018-08-12T10:27:04.109Z,25.78
2018-08-12T10:28:04.039Z,25.50
2018-08-12T10:29:03.973Z,25.45
2018-08-12T10:30:03.901Z,25.62
2018-08-12T10:31:03.832Z,25.68
2018-08-12T10:32:03.762Z,25.86
2018-08-12T10:33:03.692Z,25.71
2018-08-12T10:34:03.625Z,25.79
2018-08-12T10:35:03.553Z,25.75
2018-08-12T10:36:03.484Z,25.92
2018-08-12T10:37:03.415Z,25.94
2018-08-12T10:38:03.347Z,25.90
2018-08-12T10:39:03.277Z,25.82
2018-08-12T10:40:03.210Z,25.82
2018-08-12T10:41:03.138Z,25.77
2018-08-12T10:42:03.069Z,25.89
2018-08-12T10:43:03.007Z,25.96
2018-08-12T10:44:02.932Z,25.97
2018-08-12T10:45:02.864Z,25.83
2018-08-12T10:46:02.792Z,25.79
2018-08-12T10:47:02.724Z,25.75
2018-08-12T10:48:02.655Z,25.78
2018-08-12T10:49:02.585Z,25.84
2018-08-12T10:50:02.516Z,25.96
2018-08-12T10:51:02.449Z,26.02
2018-08-12T10:52:02.377Z,25.90
2018-08-12T10:53:02.308Z,25.84
2018-08-12T10:54:02.242Z,25.83
2018-08-12T10:55:02.170Z,25.93
2018-08-12T10:56:02.111Z,26.05
2018-08-12T10:57:02.034Z,26.20
2018-08-12T10:58:01.964Z,26.24
2018-08-12T10:59:01.894Z,26.50
2018-08-12T11:00:01.829Z,26.42
2018-08-12T11:01:01.758Z,26.40
2018-08-12T11:02:01.689Z,26.50
2018-08-12T11:03:01.622Z,26.49
2018-08-12T11:04:01.550Z,26.53
2018-08-12T11:05:01.483Z,26.67
2018-08-12T11:06:01.414Z,26.67
2018-08-12T11:07:01.344Z,26.50
2018-08-12T11:08:01.276Z,26.58
2018-08-12T11:09:01.207Z,26.76
2018-08-12T11:10:01.140Z,26.90
2018-08-12T11:11:01.070Z,27.01
2018-08-12T11:12:01.003Z,27.09
2018-08-12T11:13:00.937Z,27.09
2018-08-12T11:14:00.865Z,27.14
2018-08-12T11:15:00.798Z,27.13
2018-08-12T11:16:00.730Z,27.35
2018-08-12T11:17:00.662Z,27.38
2018-08-12T11:18:00.593Z,27.38
2018-08-12T11:19:00.524Z,27.27
2018-08-12T11:20:00.460Z,27.32
2018-08-12T11:21:00.392Z,27.08
2018-08-12T11:22:00.321Z,26.87
2018-08-12T11:23:00.253Z,26.94
2018-08-12T11:24:00.186Z,27.31
2018-08-12T11:25:00.118Z,27.39
2018-08-12T11:26:00.053Z,27.42
2018-08-12T11:26:59.982Z,27.26
2018-08-12T11:27:59.916Z,27.23
2018-08-12T11:28:59.848Z,27.31
2018-08-12T11:29:59.780Z,27.41
2018-08-12T11:30:59.713Z,27.61
2018-08-12T11:31:59.646Z,27.51
2018-08-12T11:32:59.579Z,27.64
2018-08-12T11:33:59.511Z,27.64
2018-08-12T11:34:59.445Z,27.51
2018-08-12T11:35:59.376Z,27.65
2018-08-12T11:36:59.309Z,27.64
2018-08-12T11:37:59.243Z,28.07
2018-08-12T11:38:59.173Z,28.54
2018-08-12T11:39:59.107Z,28.63
2018-08-12T11:40:59.042Z,28.69
2018-08-12T11:41:58.986Z,28.88
2018-08-12T11:42:58.908Z,29.16
2018-08-12T11:43:58.842Z,29.09
2018-08-12T11:44:58.777Z,29.62
2018-08-12T11:45:58.710Z,29.89
2018-08-12T11:46:58.645Z,30.30
2018-08-12T11:47:58.579Z,30.67
2018-08-12T11:48:58.516Z,31.46
2018-08-12T11:49:58.451Z,31.52
2018-08-12T11:50:58.387Z,31.38
2018-08-12T11:51:58.323Z,30.83
2018-08-12T11:52:58.268Z,30.68
2018-08-12T11:53:58.200Z,31.16
2018-08-12T11:54:58.136Z,31.08
2018-08-12T11:55:58.077Z,30.81
2018-08-12T11:56:58.061Z,30.94
2018-08-12T11:57:57.950Z,31.26
2018-08-12T11:58:57.889Z,31.41
2018-08-12T11:59:57.828Z,31.99
2018-08-12T12:00:57.768Z,32.53
2018-08-12T12:01:57.708Z,32.87
2018-08-12T12:02:57.645Z,33.24
2018-08-12T12:03:57.587Z,33.60
2018-08-12T12:04:57.526Z,33.95
2018-08-12T12:05:57.467Z,33.73
2018-08-12T12:06:57.408Z,33.91
2018-08-12T12:07:57.350Z,33.26
2018-08-12T12:08:57.292Z,32.64
2018-08-12T12:09:57.232Z,32.82
2018-08-12T12:10:57.174Z,32.57
2018-08-12T12:11:57.115Z,31.38
2018-08-12T12:12:57.059Z,31.79
2018-08-12T12:13:57.000Z,31.95
2018-08-12T12:14:56.977Z,32.35
2018-08-12T12:15:56.885Z,32.76
2018-08-12T12:16:56.827Z,32.95
2018-08-12T12:17:56.770Z,33.49
2018-08-12T12:18:56.711Z,32.84
2018-08-12T12:19:56.654Z,32.64
2018-08-12T12:20:56.597Z,33.02
2018-08-12T12:21:56.540Z,33.42
2018-08-12T12:22:56.483Z,32.33
2018-08-12T12:23:56.430Z,31.61
2018-08-12T12:24:56.369Z,31.38
2018-08-12T12:25:56.376Z,31.78
2018-08-12T12:26:56.270Z,31.79
2018-08-12T12:27:56.199Z,31.45
2018-08-12T12:28:56.163Z,31.36
2018-08-12T12:29:56.085Z,31.95
2018-08-12T12:30:56.027Z,32.09
2018-08-12T12:31:55.969Z,32.25
2018-08-12T12:32:55.912Z,32.54
2018-08-12T12:33:55.856Z,33.13
2018-08-12T12:34:55.848Z,33.52
2018-08-12T12:35:55.740Z,33.48
2018-08-12T12:36:55.685Z,32.95
2018-08-12T12:37:55.627Z,32.69
2018-08-12T12:38:55.573Z,32.69
2018-08-12T12:39:55.512Z,32.62
2018-08-12T12:40:55.463Z,33.02
2018-08-12T12:41:55.400Z,33.20
2018-08-12T12:42:55.412Z,32.99
2018-08-12T12:43:55.286Z,32.60
2018-08-12T12:44:55.230Z,32.70
2018-08-12T12:45:55.174Z,32.50
2018-08-12T12:46:55.117Z,33.27
2018-08-12T12:47:55.060Z,33.69
2018-08-12T12:48:55.004Z,34.19
2018-08-12T12:49:54.948Z,34.75
2018-08-12T12:50:54.891Z,34.82
2018-08-12T12:51:54.835Z,34.94